Time;durP1;ratioP1;P1;durP2;ratioP2;P2;SDS_P1;SDS_P2;PMS_P1;PMS_P2;Temp;Humidity;BMP_temperature;BMP_pressure;BME280_temperature;BME280_humidity;BME280_pressure;Samples;Min_cycle;Max_cycle;Signal;HPM_P1;HPM_P2
2021/05/05 00:02:19;;;;;;;4.40;3.10;;;13.50;99.90;;;;;;5055153;28;20215;-79
2021/05/05 00:04:45;;;;;;;5.03;4.55;;;13.50;99.90;;;;;;5052969;28;20257;-77
2021/05/05 00:07:14;;;;;;;4.90;4.32;;;13.50;99.90;;;;;;5049216;28;20207;-78
2021/05/05 00:09:41;;;;;;;5.03;3.63;;;13.60;99.90;;;;;;5048883;28;20912;-77
2021/05/05 00:12:08;;;;;;;4.10;3.60;;;13.60;99.90;;;;;;5056314;28;20640;-77
2021/05/05 00:14:35;;;;;;;4.05;3.60;;;13.50;99.90;;;;;;5051378;28;20620;-77
2021/05/05 00:17:02;;;;;;;3.47;3.17;;;13.40;99.90;;;;;;5053516;28;20198;-80
2021/05/05 00:19:28;;;;;;;3.78;3.42;;;13.40;99.90;;;;;;5044031;28;20191;-78
2021/05/05 00:21:55;;;;;;;3.85;3.47;;;13.30;99.90;;;;;;5047021;28;20621;-77
2021/05/05 00:24:21;;;;;;;5.68;4.50;;;13.20;99.90;;;;;;5052932;28;20210;-77
2021/05/05 00:26:49;;;;;;;4.78;4.20;;;13.10;99.90;;;;;;5046566;28;20206;-82
2021/05/05 00:29:15;;;;;;;5.22;4.63;;;13.00;99.90;;;;;;5049309;28;20202;-80
2021/05/05 00:31:42;;;;;;;4.85;4.32;;;13.00;99.90;;;;;;5048921;28;20211;-79
2021/05/05 00:34:09;;;;;;;6.60;5.15;;;13.00;99.90;;;;;;5051607;28;20203;-80
2021/05/05 00:36:35;;;;;;;4.50;3.80;;;12.90;99.90;;;;;;5050415;28;20215;-78
2021/05/05 00:39:03;;;;;;;4.30;3.90;;;12.80;99.90;;;;;;5044970;28;20218;-77
2021/05/05 00:41:30;;;;;;;3.58;3.28;;;12.80;99.90;;;;;;5044032;28;20701;-78
2021/05/05 00:43:57;;;;;;;4.03;3.33;;;12.70;99.90;;;;;;5045915;28;20213;-78
2021/05/05 00:46:24;;;;;;;3.17;2.88;;;12.80;99.90;;;;;;5046348;28;20215;-81
2021/05/05 00:48:51;;;;;;;3.67;3.20;;;12.70;99.90;;;;;;5048815;28;20537;-80
2021/05/05 00:51:17;;;;;;;3.10;2.90;;;12.70;99.90;;;;;;5046336;28;20281;-78
2021/05/05 00:53:44;;;;;;;2.90;2.70;;;12.70;99.90;;;;;;5048313;28;20672;-78
2021/05/05 00:56:11;;;;;;;3.00;2.72;;;12.70;99.90;;;;;;5053762;28;20238;-78
2021/05/05 00:58:38;;;;;;;3.63;3.17;;;12.70;99.90;;;;;;5043984;28;20252;-79
2021/05/05 01:01:06;;;;;;;4.13;3.72;;;12.70;99.90;;;;;;5051855;28;20210;-78
2021/05/05 01:03:33;;;;;;;4.00;3.70;;;12.70;99.90;;;;;;5051224;28;20219;-80
2021/05/05 01:06:02;;;;;;;3.10;2.90;;;12.60;99.90;;;;;;5048607;28;20215;-78
2021/05/05 01:08:31;;;;;;;3.60;3.30;;;12.60;99.90;;;;;;5049376;28;20708;-79
2021/05/05 01:10:58;;;;;;;2.90;2.60;;;12.60;99.90;;;;;;5051265;28;20226;-79
2021/05/05 01:13:25;;;;;;;3.05;2.85;;;12.50;99.90;;;;;;5048540;28;20226;-81
2021/05/05 01:15:52;;;;;;;2.80;2.63;;;12.50;99.90;;;;;;5046213;28;20229;-80
2021/05/05 01:18:19;;;;;;;3.25;2.95;;;12.50;99.90;;;;;;5048078;28;20208;-82
2021/05/05 01:20:46;;;;;;;2.80;2.60;;;12.60;99.90;;;;;;5047358;28;20225;-79
2021/05/05 01:23:14;;;;;;;4.03;3.72;;;12.60;99.90;;;;;;5042156;28;20223;-77
2021/05/05 01:25:40;;;;;;;4.22;3.90;;;12.60;99.90;;;;;;5047429;28;20606;-80
2021/05/05 01:28:07;;;;;;;3.28;3.08;;;12.50;99.90;;;;;;5053243;28;20199;-78
2021/05/05 01:30:34;;;;;;;3.30;3.08;;;12.50;99.90;;;;;;5051171;28;20279;-79
2021/05/05 01:33:01;;;;;;;3.53;3.20;;;12.50;99.90;;;;;;5049914;28;20273;-80
2021/05/05 01:35:27;;;;;;;3.63;3.35;;;12.40;99.90;;;;;;5048407;28;20234;-80
2021/05/05 01:37:54;;;;;;;2.97;2.78;;;12.40;99.90;;;;;;5045102;28;20201;-79
2021/05/05 01:40:25;;;;;;;2.90;2.70;;;12.40;99.90;;;;;;5044096;28;20210;-80
2021/05/05 01:42:52;;;;;;;2.97;2.78;;;12.40;99.90;;;;;;5042166;28;20219;-79
2021/05/05 01:45:19;;;;;;;3.40;3.10;;;12.30;99.90;;;;;;5043983;28;20720;-78
2021/05/05 01:47:46;;;;;;;2.40;2.30;;;12.30;99.90;;;;;;5045468;28;20341;-78
2021/05/05 01:50:13;;;;;;;3.08;2.75;;;12.30;99.90;;;;;;5047062;28;20798;-80
2021/05/05 01:52:40;;;;;;;4.07;3.67;;;12.20;99.90;;;;;;5048005;28;20245;-81
2021/05/05 01:55:09;;;;;;;3.22;2.72;;;12.20;99.90;;;;;;5047412;28;20296;-83
2021/05/05 01:57:39;;;;;;;2.90;2.70;;;12.20;99.90;;;;;;5043546;28;20195;-80
2021/05/05 02:00:14;;;;;;;3.20;3.00;;;12.10;99.90;;;;;;5055127;28;20222;-77
2021/05/05 02:02:41;;;;;;;3.05;2.83;;;12.10;99.90;;;;;;5054089;28;20276;-79
2021/05/05 02:05:09;;;;;;;3.28;2.97;;;12.00;99.90;;;;;;5053482;28;20265;-79
2021/05/05 02:07:36;;;;;;;3.05;2.85;;;11.90;99.90;;;;;;5044770;28;20194;-76
2021/05/05 02:10:05;;;;;;;3.63;2.80;;;11.90;99.90;;;;;;5045839;28;20233;-80
2021/05/05 02:12:32;;;;;;;3.05;2.80;;;11.80;99.90;;;;;;5054408;28;20218;-79
2021/05/05 02:15:00;;;;;;;3.75;3.03;;;11.80;99.90;;;;;;5055063;28;20227;-79
2021/05/05 02:17:26;;;;;;;3.63;3.33;;;11.70;99.90;;;;;;5047528;28;20206;-79
2021/05/05 02:19:54;;;;;;;2.90;2.70;;;11.70;99.90;;;;;;5045750;28;20298;-79
2021/05/05 02:22:20;;;;;;;3.33;3.03;;;11.70;99.90;;;;;;5046772;28;20211;-79
2021/05/05 02:24:47;;;;;;;5.88;4.20;;;11.60;99.90;;;;;;5049538;28;20211;-79
2021/05/05 02:27:14;;;;;;;3.63;3.25;;;11.50;99.90;;;;;;5049117;28;20203;-78
2021/05/05 02:29:41;;;;;;;3.22;3.03;;;11.50;99.90;;;;;;5050607;28;20196;-78
2021/05/05 02:32:11;;;;;;;3.58;3.20;;;11.60;99.90;;;;;;5050972;28;20226;-78
2021/05/05 02:34:38;;;;;;;3.33;3.13;;;11.60;99.90;;;;;;5053776;28;20208;-77
2021/05/05 02:37:06;;;;;;;3.78;3.40;;;11.60;99.90;;;;;;5053348;28;20202;-78
2021/05/05 02:39:33;;;;;;;3.55;3.30;;;11.60;99.90;;;;;;5053511;28;20194;-78
2021/05/05 02:42:00;;;;;;;3.95;3.55;;;11.50;99.90;;;;;;5047981;28;20235;-82
2021/05/05 02:44:26;;;;;;;3.28;2.60;;;11.40;99.90;;;;;;5056240;28;20216;-80
2021/05/05 02:46:53;;;;;;;3.40;3.10;;;11.40;99.90;;;;;;5056951;28;20693;-78
2021/05/05 02:49:21;;;;;;;2.95;2.75;;;11.40;99.90;;;;;;5055676;28;20195;-78
2021/05/05 02:51:47;;;;;;;3.25;3.05;;;11.40;99.90;;;;;;5042498;28;20604;-76
2021/05/05 02:54:14;;;;;;;3.63;3.33;;;11.30;99.90;;;;;;5047316;28;20210;-77
2021/05/05 02:56:41;;;;;;;4.30;3.22;;;11.30;99.90;;;;;;5049670;28;20227;-80
2021/05/05 02:59:08;;;;;;;3.22;3.03;;;11.30;99.90;;;;;;5057316;28;20207;-79
2021/05/05 03:01:34;;;;;;;3.15;2.95;;;11.20;99.90;;;;;;5052188;28;20230;-78
2021/05/05 03:04:01;;;;;;;3.50;3.30;;;11.20;99.90;;;;;;5054303;28;20234;-82
2021/05/05 03:06:30;;;;;;;3.65;3.35;;;11.10;99.90;;;;;;5046284;28;20219;-78
2021/05/05 03:08:57;;;;;;;3.53;3.33;;;11.10;99.90;;;;;;5051414;28;20202;-78
2021/05/05 03:11:23;;;;;;;3.95;3.13;;;11.00;99.90;;;;;;5049023;28;20218;-77
2021/05/05 03:13:50;;;;;;;3.50;3.20;;;10.90;99.90;;;;;;5055873;28;20544;-79
2021/05/05 03:16:17;;;;;;;2.95;2.75;;;10.90;99.90;;;;;;5057484;28;20231;-82
2021/05/05 03:18:44;;;;;;;3.53;3.22;;;10.90;99.90;;;;;;5054206;28;20206;-77
2021/05/05 03:21:11;;;;;;;3.53;3.22;;;10.80;99.90;;;;;;5051104;28;20233;-78
2021/05/05 03:23:38;;;;;;;3.58;3.28;;;10.80;99.90;;;;;;5051925;28;20222;-78
2021/05/05 03:26:05;;;;;;;3.58;3.28;;;10.80;99.90;;;;;;5048600;28;20229;-80
2021/05/05 03:28:31;;;;;;;3.55;3.25;;;10.80;99.90;;;;;;5052383;28;20195;-77
2021/05/05 03:30:58;;;;;;;3.65;3.35;;;10.70;99.90;;;;;;5055014;28;20219;-79
2021/05/05 03:33:25;;;;;;;3.35;3.15;;;10.70;99.90;;;;;;5055555;28;20222;-80
2021/05/05 03:35:51;;;;;;;3.85;3.50;;;10.70;99.90;;;;;;5045424;28;20247;-78
2021/05/05 03:38:18;;;;;;;3.78;3.47;;;10.60;99.90;;;;;;5050765;28;20270;-80
2021/05/05 03:40:46;;;;;;;3.67;3.38;;;10.60;99.90;;;;;;5045917;28;20273;-79
2021/05/05 03:43:12;;;;;;;4.10;3.80;;;10.60;99.90;;;;;;5051593;28;20232;-78
2021/05/05 03:45:40;;;;;;;3.92;3.63;;;10.60;99.90;;;;;;5052562;28;20316;-76
2021/05/05 03:48:08;;;;;;;3.95;3.55;;;10.60;99.90;;;;;;5050857;28;20214;-77
2021/05/05 03:50:35;;;;;;;4.13;3.72;;;10.50;99.90;;;;;;5058285;28;20264;-80
2021/05/05 03:53:02;;;;;;;4.10;3.70;;;10.40;99.90;;;;;;5072354;23;20233;-69
2021/05/05 03:55:29;;;;;;;5.05;3.97;;;10.30;99.90;;;;;;5056597;28;20226;-72
2021/05/05 03:57:57;;;;;;;3.80;3.40;;;10.30;99.90;;;;;;5044959;28;20194;-70
2021/05/05 04:00:24;;;;;;;3.80;3.50;;;10.40;99.90;;;;;;5047346;28;20362;-72
2021/05/05 04:02:51;;;;;;;4.20;3.80;;;10.40;99.90;;;;;;5042136;28;20238;-68
2021/05/05 04:05:17;;;;;;;4.40;4.00;;;10.40;99.90;;;;;;5040070;28;20233;-68
2021/05/05 04:07:44;;;;;;;3.85;3.55;;;10.40;99.90;;;;;;5067105;28;20198;-68
2021/05/05 04:10:12;;;;;;;3.83;3.28;;;10.40;99.90;;;;;;5061339;28;20221;-68
2021/05/05 04:12:39;;;;;;;3.88;3.58;;;10.40;99.90;;;;;;5059580;28;20692;-68
2021/05/05 04:15:09;;;;;;;4.82;4.43;;;10.40;99.90;;;;;;5057938;28;20286;-71
2021/05/05 04:17:36;;;;;;;3.88;3.58;;;10.40;99.90;;;;;;5058608;28;20228;-73
2021/05/05 04:20:03;;;;;;;4.70;4.30;;;10.20;99.90;;;;;;5060370;28;20560;-68
2021/05/05 04:22:30;;;;;;;4.00;3.70;;;10.20;99.90;;;;;;5061105;28;20214;-68
2021/05/05 04:24:56;;;;;;;3.88;3.60;;;10.20;99.90;;;;;;5050774;28;20202;-70
2021/05/05 04:27:23;;;;;;;4.22;3.92;;;10.20;99.90;;;;;;5053821;28;20603;-69
2021/05/05 04:29:49;;;;;;;4.20;3.90;;;10.20;99.90;;;;;;5061880;28;20198;-69
2021/05/05 04:32:17;;;;;;;4.70;4.30;;;10.30;99.90;;;;;;5061265;28;20656;-71
2021/05/05 04:34:44;;;;;;;4.28;3.97;;;10.30;99.90;;;;;;5057977;28;20202;-68
2021/05/05 04:37:11;;;;;;;4.78;3.63;;;10.30;99.90;;;;;;5059664;28;20225;-70
2021/05/05 04:39:38;;;;;;;4.30;3.50;;;10.30;99.90;;;;;;5060838;28;20195;-70
2021/05/05 04:42:08;;;;;;;4.38;3.85;;;10.50;99.90;;;;;;5062618;28;20688;-71
2021/05/05 04:44:35;;;;;;;5.15;4.65;;;10.60;99.90;;;;;;5065191;28;20690;-70
2021/05/05 04:47:02;;;;;;;4.07;3.78;;;10.60;99.90;;;;;;5062311;28;20473;-72
2021/05/05 04:49:30;;;;;;;5.43;4.97;;;10.80;99.90;;;;;;5065577;28;20203;-71
2021/05/05 04:51:56;;;;;;;4.25;3.92;;;10.90;99.90;;;;;;5058140;28;20215;-69
2021/05/05 04:54:23;;;;;;;5.35;4.32;;;11.00;99.90;;;;;;5061128;28;20214;-72
2021/05/05 04:56:49;;;;;;;6.13;4.53;;;11.20;99.90;;;;;;5056973;28;20432;-69
2021/05/05 04:59:16;;;;;;;7.18;3.97;;;11.20;99.90;;;;;;5057033;28;20197;-70
2021/05/05 05:01:43;;;;;;;11.95;5.10;;;11.20;99.90;;;;;;5058908;28;20767;-68
2021/05/05 05:04:10;;;;;;;7.03;4.70;;;11.00;99.90;;;;;;5063090;28;20457;-68
2021/05/05 05:06:37;;;;;;;4.57;4.18;;;10.90;99.90;;;;;;5057230;28;20211;-70
2021/05/05 05:09:05;;;;;;;4.25;3.35;;;10.80;99.90;;;;;;5064195;28;20201;-67
2021/05/05 05:11:31;;;;;;;3.90;3.60;;;10.90;99.90;;;;;;5059117;28;20443;-70
2021/05/05 05:13:58;;;;;;;4.90;4.38;;;11.20;99.90;;;;;;5066711;28;20391;-68
2021/05/05 05:16:25;;;;;;;4.07;3.78;;;11.40;99.90;;;;;;5058205;28;20252;-71
2021/05/05 05:18:51;;;;;;;5.45;4.75;;;11.60;99.90;;;;;;5065054;28;20197;-68
2021/05/05 05:21:18;;;;;;;6.95;5.32;;;11.80;99.90;;;;;;5059983;28;20264;-70
2021/05/05 05:23:45;;;;;;;8.25;5.20;;;11.80;99.90;;;;;;5059379;28;20221;-69
2021/05/05 05:26:12;;;;;;;6.38;5.72;;;11.80;99.90;;;;;;5059573;28;20249;-71
2021/05/05 05:28:39;;;;;;;5.05;4.57;;;11.80;99.90;;;;;;5064624;28;20201;-70
2021/05/05 05:31:06;;;;;;;4.40;3.97;;;11.90;99.90;;;;;;5058562;28;20222;-69
2021/05/05 05:33:32;;;;;;;5.53;4.75;;;12.10;99.90;;;;;;5065788;28;20282;-70
2021/05/05 05:35:59;;;;;;;6.15;4.90;;;12.20;99.90;;;;;;5060486;28;20718;-68
2021/05/05 05:38:25;;;;;;;5.25;4.75;;;12.30;99.90;;;;;;5062058;28;20194;-68
2021/05/05 05:40:53;;;;;;;5.38;4.82;;;12.50;99.90;;;;;;5067986;28;20276;-70
2021/05/05 05:43:19;;;;;;;5.05;4.63;;;12.50;99.90;;;;;;5067696;28;20379;-71
2021/05/05 05:45:46;;;;;;;6.18;4.60;;;12.50;99.90;;;;;;5059748;28;20226;-68
2021/05/05 05:48:13;;;;;;;5.70;4.47;;;12.60;99.90;;;;;;5064286;28;20702;-67
2021/05/05 05:50:40;;;;;;;5.80;4.47;;;12.80;99.90;;;;;;5058911;28;20655;-68
2021/05/05 05:53:06;;;;;;;6.55;4.75;;;12.80;99.90;;;;;;5048843;28;20219;-69
2021/05/05 05:55:35;;;;;;;4.90;4.50;;;12.90;99.90;;;;;;5039115;28;20222;-68
2021/05/05 05:58:04;;;;;;;5.30;4.80;;;12.90;99.90;;;;;;5060911;28;20330;-69
2021/05/05 06:00:31;;;;;;;6.50;4.32;;;13.00;99.90;;;;;;5052089;28;20616;-68
2021/05/05 06:02:57;;;;;;;5.22;4.72;;;13.10;99.90;;;;;;5063955;28;20252;-68
2021/05/05 06:05:24;;;;;;;5.63;4.90;;;13.40;99.90;;;;;;5052898;28;20199;-68
2021/05/05 06:07:51;;;;;;;5.22;4.75;;;13.70;99.90;;;;;;5035562;28;20771;-68
2021/05/05 06:10:17;;;;;;;5.35;4.85;;;13.70;99.90;;;;;;5031210;28;20279;-68
2021/05/05 06:12:44;;;;;;;6.13;4.72;;;13.70;99.90;;;;;;5063331;28;21013;-72
2021/05/05 06:15:12;;;;;;;5.35;4.85;;;13.90;99.90;;;;;;5055746;28;20206;-69
2021/05/05 06:17:39;;;;;;;5.15;4.53;;;14.10;99.90;;;;;;5027887;28;20203;-69
2021/05/05 06:20:07;;;;;;;4.43;4.05;;;14.00;99.90;;;;;;5033814;28;20458;-72
2021/05/05 06:22:34;;;;;;;7.00;5.18;;;13.90;99.90;;;;;;5028040;28;20897;-69
2021/05/05 06:25:03;;;;;;;6.70;4.82;;;13.70;99.90;;;;;;5024527;28;20604;-69
2021/05/05 06:27:29;;;;;;;5.95;4.70;;;13.30;99.90;;;;;;5033414;28;20247;-69
2021/05/05 06:29:56;;;;;;;6.22;5.28;;;13.10;99.90;;;;;;5026624;28;20684;-68
2021/05/05 06:32:23;;;;;;;5.18;4.45;;;12.90;99.90;;;;;;5032429;28;20238;-68
2021/05/05 06:34:51;;;;;;;5.50;5.03;;;12.80;99.90;;;;;;5028770;28;20203;-68
2021/05/05 06:37:18;;;;;;;7.40;4.60;;;12.90;99.90;;;;;;5026389;28;20483;-69
2021/05/05 06:39:45;;;;;;;4.78;4.32;;;13.20;99.90;;;;;;5030151;28;20227;-67
2021/05/05 06:42:12;;;;;;;7.53;5.45;;;13.50;99.90;;;;;;5048719;28;20227;-67
2021/05/05 06:44:39;;;;;;;9.60;4.72;;;13.60;99.90;;;;;;5057327;28;20725;-67
2021/05/05 06:47:05;;;;;;;6.70;5.03;;;13.90;99.90;;;;;;5070178;28;20214;-67
2021/05/05 06:49:34;;;;;;;4.65;4.13;;;14.10;99.90;;;;;;5060594;28;20194;-67
2021/05/05 06:52:02;;;;;;;4.47;4.07;;;14.50;99.90;;;;;;5058133;28;20690;-68
2021/05/05 06:54:29;;;;;;;6.45;4.85;;;14.50;99.90;;;;;;5064377;28;20206;-67
2021/05/05 06:56:55;;;;;;;5.13;4.63;;;14.40;99.90;;;;;;5056481;28;20226;-67
2021/05/05 06:59:22;;;;;;;5.75;4.28;;;14.20;99.90;;;;;;5064976;28;20191;-67
2021/05/05 07:01:49;;;;;;;5.53;4.50;;;14.10;99.90;;;;;;5059180;28;20233;-67
2021/05/05 07:04:17;;;;;;;7.20;4.65;;;14.30;99.90;;;;;;5057337;28;20700;-67
2021/05/05 07:06:44;;;;;;;6.43;5.22;;;14.60;99.90;;;;;;5065699;28;20221;-67
2021/05/05 07:09:11;;;;;;;7.50;5.22;;;14.90;99.90;;;;;;5060227;28;20620;-67
2021/05/05 07:11:39;;;;;;;5.70;5.15;;;15.20;99.90;;;;;;5062278;28;20222;-68
2021/05/05 07:14:06;;;;;;;5.85;5.35;;;15.40;99.90;;;;;;5060763;28;20214;-67
2021/05/05 07:16:33;;;;;;;5.93;5.43;;;15.40;99.90;;;;;;5055395;28;20221;-68
2021/05/05 07:19:00;;;;;;;6.30;5.70;;;15.50;99.90;;;;;;5062410;28;20194;-68
2021/05/05 07:21:27;;;;;;;6.47;5.80;;;15.60;99.90;;;;;;5055536;28;20261;-68
2021/05/05 07:23:56;;;;;;;10.05;6.47;;;15.70;99.90;;;;;;5061635;28;20209;-68
2021/05/05 07:26:23;;;;;;;5.82;5.22;;;15.70;99.90;;;;;;5059161;28;20314;-69
2021/05/05 07:28:49;;;;;;;7.78;6.00;;;15.70;99.90;;;;;;5060956;28;20224;-67
2021/05/05 07:31:16;;;;;;;7.20;6.00;;;15.90;99.90;;;;;;5059770;28;20218;-67
2021/05/05 07:33:43;;;;;;;8.07;5.43;;;15.90;99.90;;;;;;5052799;28;20628;-67
2021/05/05 07:36:15;;;;;;;9.57;5.90;;;15.80;99.90;;;;;;5058151;28;20286;-68
2021/05/05 07:38:57;;;;;;;6.43;5.28;;;16.10;99.90;;;;;;5059750;28;20224;-67
2021/05/05 07:42:01;;;;;;;7.55;6.28;;;16.30;99.90;;;;;;5057137;28;20720;-67
2021/05/05 07:47:14;;;;;;;8.85;5.88;;;16.80;99.90;;;;;;5056310;28;20222;-67
2021/05/05 07:49:46;;;;;;;6.03;5.43;;;16.70;99.90;;;;;;5055567;28;20183;-67
2021/05/05 07:52:13;;;;;;;10.82;7.10;;;16.70;99.90;;;;;;5056279;28;20336;-67
2021/05/05 07:54:39;;;;;;;8.10;6.30;;;16.70;99.90;;;;;;5053440;28;20243;-67
2021/05/05 07:57:07;;;;;;;6.65;5.95;;;16.70;99.90;;;;;;5057536;28;20468;-67
2021/05/05 07:59:34;;;;;;;6.68;5.80;;;16.80;99.90;;;;;;5064149;28;20592;-67
2021/05/05 08:02:00;;;;;;;6.20;5.60;;;17.00;99.90;;;;;;5057888;28;20215;-67
2021/05/05 08:04:27;;;;;;;8.77;5.97;;;17.30;99.90;;;;;;5067594;28;20280;-67
2021/05/05 08:06:54;;;;;;;5.95;5.35;;;17.40;99.90;;;;;;5058112;28;20506;-67
2021/05/05 08:09:22;;;;;;;7.35;6.47;;;17.40;99.90;;;;;;5056596;28;20222;-67
2021/05/05 08:11:49;;;;;;;6.85;6.15;;;17.40;99.90;;;;;;5058078;28;20230;-67
2021/05/05 08:14:17;;;;;;;7.68;6.15;;;17.40;99.90;;;;;;5055196;28;20563;-68
2021/05/05 08:16:45;;;;;;;6.65;5.95;;;17.60;99.90;;;;;;5054594;28;20221;-68
2021/05/05 08:19:11;;;;;;;9.18;6.43;;;17.40;99.90;;;;;;5057913;28;20207;-67
2021/05/05 08:21:38;;;;;;;8.73;5.55;;;17.40;99.90;;;;;;5056405;28;20210;-67
2021/05/05 08:24:06;;;;;;;6.72;5.13;;;17.60;99.90;;;;;;5056981;28;20599;-67
2021/05/05 08:26:33;;;;;;;6.57;5.90;;;18.10;99.90;;;;;;5057480;28;20230;-67
2021/05/05 08:29:00;;;;;;;5.80;5.15;;;18.20;99.90;;;;;;5052531;28;20201;-68
2021/05/05 08:31:27;;;;;;;5.75;5.25;;;18.30;99.90;;;;;;5056791;28;20254;-68
2021/05/05 08:33:54;;;;;;;7.07;5.38;;;18.40;99.90;;;;;;5055550;28;20219;-68
2021/05/05 08:36:21;;;;;;;5.72;5.03;;;18.50;99.90;;;;;;5052971;28;20244;-68
2021/05/05 08:38:47;;;;;;;6.90;4.80;;;18.70;99.90;;;;;;5049686;28;20276;-68
2021/05/05 08:41:14;;;;;;;5.53;4.93;;;18.80;99.90;;;;;;5057213;28;20235;-68
2021/05/05 08:43:41;;;;;;;5.47;4.93;;;18.60;99.90;;;;;;5055643;28;20226;-68
2021/05/05 08:46:08;;;;;;;4.95;4.45;;;18.40;99.90;;;;;;5064207;28;20295;-68
2021/05/05 08:48:36;;;;;;;6.22;5.22;;;18.70;99.90;;;;;;5055416;28;20229;-68
2021/05/05 08:51:05;;;;;;;8.95;5.03;;;18.90;99.90;;;;;;5053806;28;20233;-68
2021/05/05 08:53:33;;;;;;;7.25;5.28;;;18.80;99.90;;;;;;5065420;28;20270;-68
2021/05/05 08:56:00;;;;;;;5.55;5.00;;;18.70;99.90;;;;;;5052494;28;20248;-67
2021/05/05 08:58:26;;;;;;;7.45;4.72;;;18.60;99.90;;;;;;5061104;28;20197;-67
2021/05/05 09:00:53;;;;;;;9.65;5.40;;;18.90;99.90;;;;;;5061189;28;20565;-68
2021/05/05 09:03:30;;;;;;;4.60;4.20;;;19.00;99.90;;;;;;5057260;28;20218;-68
2021/05/05 09:05:58;;;;;;;4.78;4.32;;;19.10;99.90;;;;;;5064429;28;20201;-68
2021/05/05 09:08:27;;;;;;;5.97;4.50;;;19.00;99.90;;;;;;5057580;28;20198;-67
2021/05/05 09:10:56;;;;;;;7.82;5.45;;;18.90;99.90;;;;;;5054231;28;20195;-67
2021/05/05 09:13:47;;;;;;;6.68;4.43;;;19.00;99.90;;;;;;5065815;28;20219;-67
2021/05/05 09:16:17;;;;;;;5.72;4.50;;;19.10;99.90;;;;;;5053209;28;20234;-67
2021/05/05 09:19:01;;;;;;;8.32;4.78;;;19.40;99.90;;;;;;5059716;28;20278;-67
2021/05/05 09:21:39;;;;;;;4.65;4.25;;;19.40;99.90;;;;;;5054077;28;20223;-67
2021/05/05 09:24:25;;;;;;;5.97;3.85;;;19.50;99.90;;;;;;5059212;28;20221;-67
2021/05/05 09:26:54;;;;;;;7.15;4.20;;;19.60;99.90;;;;;;5061597;28;20226;-67
2021/05/05 09:29:22;;;;;;;4.88;4.05;;;19.30;99.90;;;;;;5061428;28;20252;-67
2021/05/05 09:31:49;;;;;;;6.43;4.65;;;19.10;99.90;;;;;;5058302;28;20280;-67
2021/05/05 09:34:16;;;;;;;9.15;5.80;;;19.20;99.90;;;;;;5053573;28;20217;-67
2021/05/05 09:36:57;;;;;;;8.50;5.90;;;19.10;99.90;;;;;;5057758;28;20221;-67
2021/05/05 09:39:29;;;;;;;7.43;5.40;;;19.00;99.90;;;;;;5061799;28;20247;-67
2021/05/05 09:41:56;;;;;;;5.45;4.95;;;18.90;99.90;;;;;;5052526;28;20218;-67
2021/05/05 09:44:22;;;;;;;5.63;4.43;;;19.00;99.90;;;;;;5038829;28;20195;-67
2021/05/05 09:46:51;;;;;;;6.43;4.82;;;19.40;99.90;;;;;;5040875;28;21511;-68
2021/05/05 09:49:26;;;;;;;6.63;5.03;;;19.70;99.90;;;;;;5028417;28;20191;-68
2021/05/05 09:51:57;;;;;;;7.00;4.60;;;20.00;99.90;;;;;;5036389;28;20232;-67
2021/05/05 09:54:26;;;;;;;6.07;4.90;;;19.70;99.90;;;;;;5052422;23;20640;-78
2021/05/05 09:56:53;;;;;;;7.00;5.18;;;19.30;99.90;;;;;;5029819;28;20219;-78
2021/05/05 09:59:20;;;;;;;6.15;4.63;;;18.90;99.90;;;;;;5018572;28;20594;-78
2021/05/05 10:02:00;;;;;;;6.70;4.20;;;18.60;99.90;;;;;;5015029;28;20295;-79
2021/05/05 10:04:26;;;;;;;6.15;4.70;;;18.40;99.90;;;;;;5003018;28;20200;-78
2021/05/05 10:07:00;;;;;;;8.48;4.18;;;18.70;99.90;;;;;;5014013;28;20222;-77
2021/05/05 10:09:27;;;;;;;6.82;4.28;;;19.10;99.90;;;;;;5027933;28;20573;-77
2021/05/05 10:11:55;;;;;;;5.32;3.92;;;19.10;99.90;;;;;;5016987;28;20238;-79
2021/05/05 10:14:23;;;;;;;4.75;3.90;;;19.50;99.90;;;;;;5007878;28;20203;-79
2021/05/05 10:16:51;;;;;;;4.88;4.35;;;19.70;99.90;;;;;;5010331;28;20701;-79
2021/05/05 10:19:20;;;;;;;7.95;3.80;;;19.80;99.90;;;;;;5012702;28;20202;-78
2021/05/05 10:21:52;;;;;;;4.03;3.63;;;19.90;99.90;;;;;;5009360;28;20766;-78
2021/05/05 10:24:22;;;;;;;4.95;3.45;;;19.90;99.90;;;;;;5024149;28;20196;-81
2021/05/05 10:26:49;;;;;;;9.73;4.13;;;20.00;99.90;;;;;;5033206;28;20227;-81
2021/05/05 10:29:16;;;;;;;6.05;4.38;;;20.10;99.90;;;;;;5028831;28;20204;-80
2021/05/05 10:31:47;;;;;;;6.38;4.25;;;19.90;99.90;;;;;;5032903;28;20236;-80
2021/05/05 10:34:20;;;;;;;4.93;4.03;;;20.10;99.90;;;;;;5040217;28;20224;-81
2021/05/05 10:36:48;;;;;;;6.25;3.83;;;20.20;99.90;;;;;;5031845;28;20304;-80
2021/05/05 10:39:44;;;;;;;6.55;4.20;;;20.10;99.90;;;;;;5018979;28;20201;-78
2021/05/05 10:48:58;;;;;;;5.75;3.78;;;20.20;99.90;;;;;;4929278;28;20609;-80
2021/05/05 10:52:03;;;;;;;5.90;3.63;;;20.40;99.90;;;;;;5002845;28;20248;-80
2021/05/05 10:55:08;;;;;;;5.43;4.03;;;20.20;99.90;;;;;;4986750;28;20604;-80
2021/05/05 11:01:06;;;;;;;4.50;3.50;;;20.20;99.90;;;;;;5019236;28;20271;-80
2021/05/05 11:03:54;;;;;;;6.78;3.63;;;20.30;99.90;;;;;;5039757;28;20203;-80
2021/05/05 11:06:52;;;;;;;5.95;3.40;;;20.40;99.90;;;;;;5028084;28;20216;-80
2021/05/05 11:09:44;;;;;;;3.45;3.15;;;20.40;99.90;;;;;;5022876;28;20461;-79
2021/05/05 11:12:44;;;;;;;4.65;2.95;;;20.50;99.90;;;;;;5017913;28;20539;-80
2021/05/05 11:15:12;;;;;;;6.38;3.05;;;20.70;99.90;;;;;;5014362;28;20244;-79
2021/05/05 11:17:38;;;;;;;3.75;3.05;;;20.90;99.90;;;;;;5016211;28;20227;-79
2021/05/05 11:20:07;;;;;;;4.63;2.80;;;20.90;99.90;;;;;;5007027;28;20509;-78
2021/05/05 11:22:51;;;;;;;4.25;3.15;;;20.70;99.90;;;;;;5017767;28;20207;-80
2021/05/05 11:25:26;;;;;;;3.83;2.90;;;20.30;99.90;;;;;;5043186;28;20227;-80
2021/05/05 11:27:54;;;;;;;3.80;3.33;;;20.00;99.90;;;;;;5041142;28;20282;-80
2021/05/05 11:30:52;;;;;;;5.30;3.28;;;19.80;99.90;;;;;;5043937;28;20220;-80
2021/05/05 11:33:19;;;;;;;6.07;3.08;;;19.90;99.90;;;;;;5038444;28;20221;-81
2021/05/05 11:35:46;;;;;;;5.35;2.75;;;20.00;99.90;;;;;;5034406;28;20218;-80
2021/05/05 11:38:19;;;;;;;4.75;2.67;;;20.20;99.90;;;;;;5040744;28;20200;-80
2021/05/05 11:41:00;;;;;;;4.57;2.70;;;20.10;99.90;;;;;;5039480;28;20281;-80
2021/05/05 11:43:29;;;;;;;2.97;2.72;;;20.10;99.90;;;;;;5045596;28;20199;-80
2021/05/05 11:45:59;;;;;;;4.65;2.70;;;20.20;99.90;;;;;;5044166;28;20279;-82
2021/05/05 11:48:37;;;;;;;4.50;2.78;;;20.10;99.90;;;;;;5042756;28;20645;-80
2021/05/05 11:51:17;;;;;;;5.47;2.90;;;20.00;99.90;;;;;;5039577;28;20219;-80
2021/05/05 11:53:44;;;;;;;4.35;2.78;;;19.80;99.90;;;;;;5045287;28;20211;-81
2021/05/05 11:56:23;;;;;;;6.00;2.85;;;19.80;99.90;;;;;;5045094;28;20228;-80
2021/05/05 11:58:54;;;;;;;3.10;2.22;;;19.90;99.90;;;;;;5045708;28;20222;-81
2021/05/05 12:01:33;;;;;;;3.78;2.67;;;19.80;99.90;;;;;;5050087;28;20200;-81
2021/05/05 12:04:20;;;;;;;3.33;2.20;;;20.00;99.90;;;;;;5050122;28;20230;-81
2021/05/05 12:06:52;;;;;;;4.20;2.47;;;19.90;99.90;;;;;;5049435;28;20219;-80
2021/05/05 12:09:23;;;;;;;2.58;2.35;;;19.80;99.90;;;;;;5052484;28;20184;-80
2021/05/05 12:11:50;;;;;;;2.67;2.47;;;19.30;99.90;;;;;;5037268;28;20212;-82
2021/05/05 12:14:29;;;;;;;3.97;2.33;;;19.10;99.90;;;;;;5033268;28;20465;-80
2021/05/05 12:17:11;;;;;;;4.47;2.35;;;19.30;99.90;;;;;;5035191;28;20306;-80
2021/05/05 12:19:38;;;;;;;3.42;2.75;;;19.70;99.90;;;;;;5036893;28;20231;-81
2021/05/05 12:22:12;;;;;;;3.03;2.53;;;20.20;99.90;;;;;;5059261;28;20200;-81
2021/05/05 12:24:39;;;;;;;5.78;2.70;;;20.50;99.90;;;;;;5059940;28;20201;-80
2021/05/05 12:27:07;;;;;;;2.53;2.33;;;20.60;99.90;;;;;;5029814;28;20208;-80
2021/05/05 12:29:34;;;;;;;4.32;2.60;;;20.60;99.90;;;;;;5040135;28;20213;-81
2021/05/05 12:32:03;;;;;;;4.00;2.58;;;20.60;99.90;;;;;;5053533;28;20283;-81
2021/05/05 12:34:30;;;;;;;3.33;1.90;;;20.80;99.90;;;;;;5045322;28;20215;-80
2021/05/05 12:36:57;;;;;;;3.42;2.28;;;21.00;99.90;;;;;;5037517;28;20226;-81
2021/05/05 12:39:23;;;;;;;2.60;2.40;;;21.30;99.90;;;;;;5043984;28;20211;-82
2021/05/05 12:41:51;;;;;;;3.97;2.22;;;21.20;99.90;;;;;;5043084;28;20226;-80
2021/05/05 12:44:19;;;;;;;3.45;2.35;;;21.10;99.90;;;;;;5041852;28;20271;-82
2021/05/05 12:46:57;;;;;;;5.28;2.13;;;21.00;99.90;;;;;;5051266;28;20214;-81
2021/05/05 12:49:27;;;;;;;4.00;2.22;;;21.00;99.90;;;;;;5054366;28;20274;-83
2021/05/05 12:51:55;;;;;;;3.33;2.10;;;21.00;99.90;;;;;;5056967;28;20227;-82
2021/05/05 12:54:24;;;;;;;3.75;1.98;;;21.00;99.90;;;;;;5050977;28;20215;-81
2021/05/05 12:56:52;;;;;;;4.25;2.15;;;21.00;99.90;;;;;;5052655;28;20223;-81
2021/05/05 12:59:21;;;;;;;5.55;1.88;;;21.00;99.90;;;;;;5056847;28;20199;-84
2021/05/05 13:02:02;;;;;;;3.53;1.98;;;20.90;99.90;;;;;;5058650;28;20223;-81
2021/05/05 13:04:35;;;;;;;3.13;1.95;;;20.90;99.90;;;;;;5063956;28;20214;-83
2021/05/05 13:07:02;;;;;;;5.20;2.20;;;21.00;99.90;;;;;;5064722;28;20236;-82
2021/05/05 13:09:31;;;;;;;3.80;2.00;;;20.70;99.90;;;;;;5069247;28;20440;-80